createdAt,value
2023-04-21T00:00:00.206Z,14.77
2023-04-21T00:02:27.693Z,15.23
2023-04-21T00:04:56.504Z,15.13
2023-04-21T00:07:23.348Z,14.40
2023-04-21T00:09:50.019Z,13.63
2023-04-21T00:12:16.973Z,14.40
2023-04-21T00:14:44.187Z,14.93
2023-04-21T00:17:10.885Z,15.07
2023-04-21T00:19:37.827Z,15.20
2023-04-21T00:22:08.320Z,14.07
2023-04-21T00:24:35.116Z,14.77
2023-04-21T00:27:03.724Z,14.00
2023-04-21T00:29:30.680Z,13.07
2023-04-21T00:31:57.715Z,14.07
2023-04-21T00:34:24.532Z,15.40
2023-04-21T00:36:52.167Z,14.10
2023-04-21T00:39:19.047Z,14.33
2023-04-21T00:41:46.870Z,14.17
2023-04-21T00:44:13.853Z,14.20
2023-04-21T00:46:41.148Z,15.60
2023-04-21T00:49:08.204Z,14.80
2023-04-21T00:51:37.115Z,14.90
2023-04-21T00:54:09.406Z,13.43
2023-04-21T00:56:37.019Z,14.90
2023-04-21T00:59:04.215Z,15.20
2023-04-21T01:01:32.841Z,16.03
2023-04-21T01:04:00.990Z,15.43
2023-04-21T01:06:36.963Z,16.33
2023-04-21T01:09:05.375Z,14.27
2023-04-21T01:11:32.323Z,16.13
2023-04-21T01:14:00.401Z,16.10
2023-04-21T01:16:27.328Z,14.90
2023-04-21T01:18:54.060Z,16.50
2023-04-21T01:21:21.854Z,14.63
2023-04-21T01:23:49.260Z,14.37
2023-04-21T01:26:22.972Z,14.47
2023-04-21T01:28:50.240Z,14.70
2023-04-21T01:31:17.912Z,14.47
2023-04-21T01:33:45.370Z,14.03
2023-04-21T01:36:12.201Z,13.50
2023-04-21T01:38:42.710Z,14.07
2023-04-21T01:41:10.895Z,14.43
2023-04-21T01:43:38.206Z,13.30
2023-04-21T01:46:06.224Z,13.73
2023-04-21T01:48:33.194Z,14.73
2023-04-21T01:51:00.118Z,14.10
2023-04-21T01:53:27.147Z,14.40
2023-04-21T01:55:53.972Z,15.33
2023-04-21T01:58:22.256Z,14.37
2023-04-21T02:00:49.552Z,15.10
2023-04-21T02:03:16.642Z,13.97
2023-04-21T02:05:45.983Z,13.80
2023-04-21T02:08:12.963Z,14.47
2023-04-21T02:10:41.131Z,13.43
2023-04-21T02:13:11.634Z,15.97
2023-04-21T02:15:38.387Z,15.63
2023-04-21T02:18:06.576Z,14.47
2023-04-21T02:20:33.371Z,14.50
2023-04-21T02:23:00.951Z,15.50
2023-04-21T02:25:28.259Z,14.57
2023-04-21T02:27:55.046Z,14.33
2023-04-21T02:30:21.886Z,13.93
2023-04-21T02:32:48.746Z,13.93
2023-04-21T02:35:15.686Z,14.13
2023-04-21T02:37:42.365Z,14.70
2023-04-21T02:40:09.771Z,13.97
2023-04-21T02:42:36.565Z,13.03
2023-04-21T02:45:03.644Z,14.00
2023-04-21T02:47:30.749Z,14.03
2023-04-21T02:49:57.483Z,14.77
2023-04-21T02:52:24.885Z,14.33
2023-04-21T02:54:51.672Z,13.70
2023-04-21T02:57:18.481Z,14.60
2023-04-21T02:59:45.965Z,13.13
2023-04-21T03:02:12.786Z,13.63
2023-04-21T03:04:39.605Z,13.90
2023-04-21T03:07:12.020Z,14.00
2023-04-21T03:09:39.886Z,14.47
2023-04-21T03:12:06.986Z,15.13
2023-04-21T03:14:36.784Z,15.10
2023-04-21T03:17:03.648Z,13.77
2023-04-21T03:19:31.375Z,14.73
2023-04-21T03:21:58.091Z,16.00
2023-04-21T03:24:24.913Z,14.20
2023-04-21T03:26:51.948Z,14.10
2023-04-21T03:29:19.105Z,14.07
2023-04-21T03:31:46.119Z,14.07
2023-04-21T03:34:12.931Z,13.87
2023-04-21T03:36:39.699Z,14.63
2023-04-21T03:39:19.314Z,14.87
2023-04-21T03:41:48.232Z,14.17
2023-04-21T03:44:15.282Z,14.30
2023-04-21T03:46:41.997Z,13.97
2023-04-21T03:49:08.777Z,14.57
2023-04-21T03:51:35.616Z,15.03
2023-04-21T03:54:02.424Z,14.07
2023-04-21T03:56:30.500Z,14.10
2023-04-21T03:58:57.251Z,13.87
2023-04-21T04:01:23.989Z,13.57
2023-04-21T04:03:50.977Z,13.70
2023-04-21T04:06:18.030Z,13.93
2023-04-21T04:08:45.064Z,14.87
2023-04-21T04:11:11.828Z,13.70
2023-04-21T04:13:38.656Z,13.50
2023-04-21T04:16:06.236Z,14.30
2023-04-21T04:18:32.908Z,13.73
2023-04-21T04:21:06.245Z,13.53
2023-04-21T04:23:33.761Z,14.07
2023-04-21T04:26:01.694Z,14.20
2023-04-21T04:28:28.934Z,13.87
2023-04-21T04:30:55.792Z,15.53
2023-04-21T04:33:22.622Z,19.57
2023-04-21T04:35:49.409Z,20.63
2023-04-21T04:38:16.451Z,20.63
2023-04-21T04:40:43.620Z,20.97
2023-04-21T04:43:12.999Z,21.60
2023-04-21T04:45:39.718Z,22.80
2023-04-21T04:48:07.517Z,22.27
2023-04-21T04:50:34.394Z,16.87
2023-04-21T04:53:01.490Z,16.40
2023-04-21T04:55:28.250Z,15.17
2023-04-21T04:57:54.964Z,17.00
2023-04-21T05:00:22.558Z,15.07
2023-04-21T05:02:49.488Z,16.23
2023-04-21T05:05:16.725Z,15.00
2023-04-21T05:07:43.532Z,16.13
2023-04-21T05:10:10.475Z,15.90
2023-04-21T05:12:38.011Z,17.33
2023-04-21T05:15:06.428Z,16.20
2023-04-21T05:17:34.190Z,17.03
2023-04-21T05:20:00.977Z,19.17
2023-04-21T05:22:27.808Z,16.43
2023-04-21T05:24:54.645Z,16.70
2023-04-21T05:27:21.574Z,17.00
2023-04-21T05:29:48.379Z,16.63
2023-04-21T05:32:15.475Z,17.43
2023-04-21T05:34:42.574Z,16.80
2023-04-21T05:37:11.798Z,15.30
2023-04-21T05:39:38.607Z,15.40
2023-04-21T05:42:05.618Z,15.40
2023-04-21T05:44:32.479Z,16.33
2023-04-21T05:46:59.214Z,16.47
2023-04-21T05:49:25.888Z,16.03
2023-04-21T05:51:53.227Z,14.97
2023-04-21T05:54:20.174Z,15.43
2023-04-21T05:56:48.380Z,17.13
2023-04-21T05:59:15.481Z,15.83
2023-04-21T06:01:43.172Z,16.13
2023-04-21T06:04:10.116Z,17.87
2023-04-21T06:06:37.184Z,17.50
2023-04-21T06:09:03.990Z,17.00
2023-04-21T06:11:30.960Z,16.80
2023-04-21T06:13:59.847Z,16.97
2023-04-21T06:16:27.172Z,16.77
2023-04-21T06:18:54.663Z,16.03
2023-04-21T06:21:21.894Z,16.70
2023-04-21T06:23:48.718Z,16.73
2023-04-21T06:26:15.684Z,12.80
2023-04-21T06:28:42.529Z,14.80
2023-04-21T06:31:15.280Z,14.60
2023-04-21T06:33:42.339Z,14.33
2023-04-21T06:36:09.097Z,13.60
2023-04-21T06:38:35.942Z,12.83
2023-04-21T06:41:04.652Z,13.53
2023-04-21T06:43:31.700Z,13.10
2023-04-21T06:45:58.464Z,12.50
2023-04-21T06:48:25.282Z,12.30
2023-04-21T06:50:52.470Z,12.73
2023-04-21T06:53:19.214Z,11.73
2023-04-21T06:55:46.378Z,10.70
2023-04-21T06:58:13.697Z,11.30
2023-04-21T07:00:40.470Z,11.60
2023-04-21T07:03:07.750Z,11.60
2023-04-21T07:05:34.640Z,12.53
2023-04-21T07:08:01.517Z,11.90
2023-04-21T07:10:29.276Z,12.60
2023-04-21T07:12:56.191Z,11.35
2023-04-21T07:15:23.279Z,11.38
2023-04-21T07:17:50.197Z,12.00
2023-04-21T07:20:18.800Z,10.97
2023-04-21T07:22:45.736Z,11.53
2023-04-21T07:25:12.737Z,12.17
2023-04-21T07:27:39.569Z,12.27
2023-04-21T07:30:07.960Z,11.73
2023-04-21T07:32:35.206Z,11.90
2023-04-21T07:35:03.165Z,12.27
2023-04-21T07:37:29.934Z,12.13
2023-04-21T07:39:56.697Z,12.60
2023-04-21T07:42:24.512Z,12.60
2023-04-21T07:44:51.322Z,11.40
2023-04-21T07:47:18.571Z,11.33
2023-04-21T07:49:45.681Z,11.85
2023-04-21T07:52:12.564Z,11.73
2023-04-21T07:54:39.631Z,11.77
2023-04-21T07:57:07.273Z,10.77
2023-04-21T07:59:34.033Z,11.07
2023-04-21T08:02:01.468Z,10.63
2023-04-21T08:04:28.357Z,12.00
2023-04-21T08:06:55.921Z,10.75
2023-04-21T08:09:23.527Z,11.13
2023-04-21T08:11:50.388Z,11.68
2023-04-21T08:14:17.608Z,10.88
2023-04-21T08:16:44.872Z,11.25
2023-04-21T08:19:11.737Z,10.48
2023-04-21T08:21:40.116Z,10.38
2023-04-21T08:24:07.197Z,10.80
2023-04-21T08:26:35.074Z,10.88
2023-04-21T08:29:04.393Z,9.88
2023-04-21T08:31:31.555Z,9.82
2023-04-21T08:34:01.756Z,10.18
2023-04-21T08:36:30.579Z,9.68
2023-04-21T08:38:58.220Z,9.70
2023-04-21T08:41:26.419Z,9.60
2023-04-21T08:43:53.897Z,9.00
2023-04-21T08:46:21.642Z,8.93
2023-04-21T08:48:48.910Z,8.88
2023-04-21T08:51:22.951Z,8.48
2023-04-21T08:53:50.448Z,9.05
2023-04-21T08:56:17.245Z,9.02
2023-04-21T08:58:43.984Z,8.25
2023-04-21T09:01:12.163Z,8.27
2023-04-21T09:03:39.288Z,9.15
2023-04-21T09:06:09.793Z,9.00
2023-04-21T09:08:52.581Z,8.50
2023-04-21T09:11:19.754Z,9.27
2023-04-21T09:13:46.516Z,8.55
2023-04-21T09:16:22.253Z,7.95
2023-04-21T09:18:51.699Z,8.95
2023-04-21T09:21:19.853Z,8.52
2023-04-21T09:23:51.354Z,8.80
2023-04-21T09:26:19.866Z,8.57
2023-04-21T09:28:48.441Z,8.23
2023-04-21T09:31:17.020Z,8.05
2023-04-21T09:33:57.752Z,7.60
2023-04-21T09:36:28.457Z,7.45
2023-04-21T09:39:24.424Z,8.00
2023-04-21T09:41:46.072Z,7.15
2023-04-21T09:44:12.861Z,7.47
2023-04-21T09:46:43.959Z,7.20
2023-04-21T09:49:13.893Z,7.38
2023-04-21T09:56:49.953Z,6.85
2023-04-21T09:59:23.733Z,6.20
2023-04-21T10:01:54.990Z,6.32
2023-04-21T10:04:23.814Z,7.15
2023-04-21T10:06:51.996Z,6.28
2023-04-21T10:09:22.821Z,6.95
2023-04-21T10:11:50.248Z,6.50
2023-04-21T10:14:17.226Z,6.07
2023-04-21T10:16:44.277Z,6.72
2023-04-21T10:19:28.157Z,6.70
2023-04-21T10:21:58.083Z,6.32
2023-04-21T10:24:28.931Z,6.40
2023-04-21T10:27:02.239Z,6.97
2023-04-21T10:29:40.185Z,5.30
2023-04-21T10:32:11.876Z,5.38
2023-04-21T10:34:39.165Z,5.85
2023-04-21T10:37:06.627Z,5.72
2023-04-21T10:39:45.555Z,5.63
2023-04-21T10:42:29.970Z,6.03
2023-04-21T10:44:56.632Z,6.03
2023-04-21T10:47:28.756Z,5.75
2023-04-21T10:50:00.578Z,6.50
2023-04-21T10:52:33.690Z,6.72
2023-04-21T10:55:00.419Z,5.82
2023-04-21T10:57:32.828Z,6.10
2023-04-21T10:59:59.918Z,5.88
2023-04-21T11:02:27.799Z,5.57
2023-04-21T11:04:55.753Z,5.47
2023-04-21T11:07:26.943Z,5.93
2023-04-21T11:10:08.521Z,5.70
2023-04-21T11:12:38.612Z,5.40
2023-04-21T11:15:11.803Z,4.85
2023-04-21T11:17:40.517Z,4.72
2023-04-21T11:20:07.881Z,5.97
2023-04-21T11:22:36.994Z,5.32
2023-04-21T11:25:04.698Z,6.40
2023-04-21T11:27:31.471Z,6.18
2023-04-21T11:29:58.661Z,6.07
2023-04-21T11:32:25.582Z,6.22
2023-04-21T11:34:52.447Z,4.72
2023-04-21T11:37:27.170Z,5.30
2023-04-21T11:39:58.840Z,6.40
2023-04-21T11:42:25.897Z,6.47
2023-04-21T11:44:55.895Z,5.20
2023-04-21T11:47:24.749Z,6.80
2023-04-21T11:49:55.922Z,6.80
2023-04-21T11:52:23.865Z,7.55
2023-04-21T11:55:01.901Z,7.90
2023-04-21T11:57:31.062Z,7.50
2023-04-21T12:00:02.552Z,7.22
2023-04-21T12:02:32.876Z,7.00
2023-04-21T12:05:03.245Z,6.60
2023-04-21T12:07:32.253Z,6.80
2023-04-21T12:09:59.771Z,6.80
2023-04-21T12:12:27.450Z,6.15
2023-04-21T12:14:54.721Z,6.35
2023-04-21T12:17:21.654Z,4.90
2023-04-21T12:19:48.682Z,5.38
2023-04-21T12:22:23.643Z,5.22
2023-04-21T12:24:50.504Z,5.30
2023-04-21T12:27:19.133Z,5.03
2023-04-21T12:29:45.845Z,4.82
2023-04-21T12:32:12.968Z,5.18
2023-04-21T12:34:39.917Z,4.80
2023-04-21T12:37:06.928Z,5.45
2023-04-21T12:39:34.042Z,5.57
2023-04-21T12:42:01.587Z,4.95
2023-04-21T12:44:29.000Z,4.63
2023-04-21T12:46:57.798Z,5.00
2023-04-21T12:49:26.035Z,4.82
2023-04-21T12:51:53.090Z,4.90
2023-04-21T12:54:19.878Z,4.35
2023-04-21T12:56:46.959Z,4.53
2023-04-21T12:59:14.161Z,4.30
2023-04-21T13:01:43.007Z,3.80
2023-04-21T13:04:10.545Z,3.08
2023-04-21T13:06:39.095Z,3.00
2023-04-21T13:09:06.782Z,2.83
2023-04-21T13:11:33.997Z,2.75
2023-04-21T13:14:00.760Z,2.30
2023-04-21T13:16:30.183Z,2.20
2023-04-21T13:18:58.196Z,2.30
2023-04-21T13:21:25.116Z,1.92
2023-04-21T13:23:52.320Z,2.10
2023-04-21T13:26:19.151Z,1.75
2023-04-21T13:28:45.887Z,1.83
2023-04-21T13:31:14.707Z,1.90
2023-04-21T13:33:42.178Z,2.10
2023-04-21T13:36:12.576Z,2.45
2023-04-21T13:38:40.973Z,1.88
2023-04-21T13:41:09.055Z,2.00
2023-04-21T13:43:36.329Z,1.92
2023-04-21T13:46:03.163Z,2.20
2023-04-21T13:48:30.124Z,2.25
2023-04-21T13:50:57.249Z,2.00
2023-04-21T13:53:24.043Z,1.40
2023-04-21T13:55:51.259Z,1.27
2023-04-21T13:58:18.245Z,1.60
2023-04-21T14:00:45.029Z,1.85
2023-04-21T14:03:12.497Z,2.60
2023-04-21T14:05:40.177Z,2.45
2023-04-21T14:08:07.726Z,2.10
2023-04-21T14:10:34.546Z,1.63
2023-04-21T14:13:01.470Z,1.67
2023-04-21T14:15:28.959Z,1.30
2023-04-21T14:17:56.630Z,1.30
2023-04-21T14:20:24.206Z,1.50
2023-04-21T14:22:50.998Z,1.10
2023-04-21T14:25:18.032Z,1.13
2023-04-21T14:27:45.289Z,1.15
2023-04-21T14:30:14.054Z,1.27
2023-04-21T14:32:45.496Z,1.33
2023-04-21T14:35:13.693Z,1.33
2023-04-21T14:37:41.523Z,1.30
2023-04-21T14:40:09.207Z,1.48
2023-04-21T14:42:36.135Z,1.50
2023-04-21T14:45:02.871Z,1.48
2023-04-21T14:47:30.145Z,1.42
2023-04-21T14:49:57.827Z,1.60
2023-04-21T14:52:25.853Z,1.50
2023-04-21T14:54:53.282Z,1.50
2023-04-21T14:57:22.118Z,1.30
2023-04-21T14:59:50.803Z,1.90
2023-04-21T15:02:19.089Z,0.95
2023-04-21T15:04:46.450Z,1.10
2023-04-21T15:07:14.534Z,1.30
2023-04-21T15:09:45.719Z,1.52
2023-04-21T15:12:14.563Z,1.30
2023-04-21T15:14:41.816Z,1.40
2023-04-21T15:17:08.761Z,1.40
2023-04-21T15:19:35.692Z,1.35
2023-04-21T15:22:04.759Z,1.50
2023-04-21T15:24:31.805Z,1.45
2023-04-21T15:26:59.520Z,1.45
2023-04-21T15:29:26.812Z,1.52
2023-04-21T15:31:53.628Z,1.70
2023-04-21T15:34:20.461Z,1.83
2023-04-21T15:36:47.222Z,1.40
2023-04-21T15:39:14.649Z,1.55
2023-04-21T15:41:41.719Z,1.60
2023-04-21T15:44:08.732Z,1.40
2023-04-21T15:46:35.582Z,1.23
2023-04-21T15:49:02.507Z,1.15
2023-04-21T15:51:29.809Z,1.30
2023-04-21T15:53:56.987Z,1.77
2023-04-21T15:56:24.336Z,1.60
2023-04-21T15:58:51.078Z,1.60
2023-04-21T16:01:18.480Z,1.20
2023-04-21T16:03:46.451Z,1.17
2023-04-21T16:06:13.609Z,1.27
2023-04-21T16:08:40.554Z,1.48
2023-04-21T16:11:07.579Z,1.48
2023-04-21T16:13:34.706Z,4.60
2023-04-21T16:16:01.559Z,15.05
2023-04-21T16:18:28.928Z,5.60
2023-04-21T16:20:55.897Z,4.47
2023-04-21T16:23:24.592Z,3.28
2023-04-21T16:25:51.416Z,2.78
2023-04-21T16:28:18.356Z,4.32
2023-04-21T16:30:46.109Z,3.88
2023-04-21T16:33:15.234Z,2.72
2023-04-21T16:35:42.153Z,4.00
2023-04-21T16:38:09.547Z,4.78
2023-04-21T16:40:36.313Z,6.10
2023-04-21T16:43:03.166Z,3.92
2023-04-21T16:45:30.519Z,5.10
2023-04-21T16:47:57.942Z,5.13
2023-04-21T16:50:25.606Z,2.33
2023-04-21T16:52:52.339Z,1.65
2023-04-21T16:55:19.274Z,1.88
2023-04-21T16:57:46.577Z,1.92
2023-04-21T17:00:14.171Z,2.30
2023-04-21T17:02:41.122Z,1.45
2023-04-21T17:05:08.425Z,1.90
2023-04-21T17:07:35.390Z,1.42
2023-04-21T17:10:02.318Z,1.88
2023-04-21T17:12:29.309Z,2.10
2023-04-21T17:14:56.205Z,1.88
2023-04-21T17:17:23.420Z,2.33
2023-04-21T17:19:50.999Z,2.13
2023-04-21T17:22:17.819Z,1.80
2023-04-21T17:24:52.631Z,1.73
2023-04-21T17:27:21.133Z,2.15
2023-04-21T17:29:48.342Z,1.90
2023-04-21T17:32:16.082Z,1.95
2023-04-21T17:34:43.008Z,2.30
2023-04-21T17:37:10.043Z,2.78
2023-04-21T17:39:37.292Z,2.20
2023-04-21T17:42:04.996Z,2.50
2023-04-21T17:44:32.085Z,2.20
2023-04-21T17:46:59.844Z,1.95
2023-04-21T17:49:26.635Z,2.15
2023-04-21T17:51:53.745Z,2.22
2023-04-21T17:54:20.916Z,1.70
2023-04-21T17:56:47.751Z,1.80
2023-04-21T17:59:14.952Z,2.10
2023-04-21T18:01:41.837Z,2.30
2023-04-21T18:04:09.000Z,2.03
2023-04-21T18:06:36.735Z,9.02
2023-04-21T18:09:05.102Z,4.68
2023-04-21T18:11:32.422Z,3.78
2023-04-21T18:14:00.197Z,5.35
2023-04-21T18:16:27.363Z,4.03
2023-04-21T18:18:54.252Z,4.82
2023-04-21T18:21:21.352Z,4.97
2023-04-21T18:23:49.162Z,3.10
2023-04-21T18:26:16.924Z,2.80
2023-04-21T18:28:43.769Z,2.90
2023-04-21T18:31:10.839Z,3.00
2023-04-21T18:33:38.236Z,3.25
2023-04-21T18:36:05.838Z,2.50
2023-04-21T18:38:33.229Z,2.65
2023-04-21T18:41:00.720Z,3.60
2023-04-21T18:43:27.458Z,2.88
2023-04-21T18:45:54.635Z,2.60
2023-04-21T18:48:21.464Z,2.40
2023-04-21T18:50:48.562Z,2.40
2023-04-21T18:53:15.759Z,2.60
2023-04-21T18:55:42.503Z,3.00
2023-04-21T18:58:09.289Z,2.83
2023-04-21T19:00:38.921Z,3.05
2023-04-21T19:03:06.652Z,2.90
2023-04-21T19:05:35.948Z,2.22
2023-04-21T19:08:03.379Z,2.50
2023-04-21T19:10:32.246Z,2.85
2023-04-21T19:12:59.493Z,2.60
2023-04-21T19:15:26.411Z,2.38
2023-04-21T19:17:53.280Z,2.67
2023-04-21T19:20:20.186Z,2.73
2023-04-21T19:22:47.560Z,2.50
2023-04-21T19:25:14.409Z,2.60
2023-04-21T19:27:41.625Z,2.37
2023-04-21T19:30:09.087Z,2.67
2023-04-21T19:32:35.843Z,2.63
2023-04-21T19:35:02.648Z,2.50
2023-04-21T19:37:29.570Z,2.70
2023-04-21T19:39:56.552Z,2.97
2023-04-21T19:42:23.429Z,2.60
2023-04-21T19:44:50.099Z,2.53
2023-04-21T19:47:17.976Z,2.23
2023-04-21T19:49:45.223Z,2.30
2023-04-21T19:52:12.873Z,2.20
2023-04-21T19:54:39.877Z,2.60
2023-04-21T19:57:07.030Z,2.50
2023-04-21T19:59:34.952Z,2.17
2023-04-21T20:02:02.782Z,3.23
2023-04-21T20:04:29.887Z,2.70
2023-04-21T20:06:56.948Z,2.80
2023-04-21T20:09:23.771Z,2.73
2023-04-21T20:11:50.516Z,2.47
2023-04-21T20:14:18.944Z,1.97
2023-04-21T20:16:46.818Z,2.30
2023-04-21T20:19:15.243Z,3.90
2023-04-21T20:21:43.810Z,3.37
2023-04-21T20:24:10.646Z,2.90
2023-04-21T20:26:37.313Z,2.60
2023-04-21T20:29:04.502Z,2.80
2023-04-21T20:31:31.871Z,2.73
2023-04-21T20:33:58.690Z,2.87
2023-04-21T20:36:27.481Z,3.20
2023-04-21T20:38:54.345Z,2.80
2023-04-21T20:41:23.356Z,3.70
2023-04-21T20:43:50.222Z,3.80
2023-04-21T20:46:18.588Z,3.53
2023-04-21T20:48:45.664Z,3.07
2023-04-21T20:51:13.555Z,3.37
2023-04-21T20:53:40.468Z,4.10
2023-04-21T20:56:07.710Z,3.37
2023-04-21T20:58:36.124Z,3.93
2023-04-21T21:01:03.634Z,3.70
2023-04-21T21:03:31.049Z,4.50
2023-04-21T21:05:58.789Z,3.43
2023-04-21T21:08:25.732Z,3.17
2023-04-21T21:10:52.719Z,3.20
2023-04-21T21:13:19.846Z,3.07
2023-04-21T21:15:47.270Z,3.40
2023-04-21T21:18:14.156Z,3.37
2023-04-21T21:20:41.117Z,2.90
2023-04-21T21:23:08.001Z,3.10
2023-04-21T21:25:35.337Z,3.13
2023-04-21T21:28:02.377Z,3.07
2023-04-21T21:30:29.138Z,2.77
2023-04-21T21:32:56.433Z,3.70
2023-04-21T21:35:23.422Z,3.33
2023-04-21T21:37:50.242Z,2.80
2023-04-21T21:40:17.507Z,3.27
2023-04-21T21:42:44.221Z,2.70
2023-04-21T21:45:11.578Z,2.80
2023-04-21T21:47:41.727Z,2.80
2023-04-21T21:50:12.624Z,3.30
2023-04-21T21:52:39.653Z,3.30
2023-04-21T21:55:07.138Z,3.10
2023-04-21T21:57:34.234Z,2.87
2023-04-21T22:00:02.560Z,3.43
2023-04-21T22:02:32.514Z,3.20
2023-04-21T22:04:59.715Z,3.07
2023-04-21T22:07:26.757Z,3.73
2023-04-21T22:09:53.588Z,3.60
2023-04-21T22:12:20.501Z,3.27
2023-04-21T22:14:47.577Z,3.53
2023-04-21T22:17:15.955Z,3.53
2023-04-21T22:19:43.211Z,3.43
2023-04-21T22:22:10.599Z,3.50
2023-04-21T22:24:37.749Z,3.70
2023-04-21T22:27:04.630Z,3.87
2023-04-21T22:29:31.481Z,3.60
2023-04-21T22:31:58.395Z,3.10
2023-04-21T22:34:25.225Z,3.23
2023-04-21T22:36:53.414Z,3.40
2023-04-21T22:39:20.680Z,3.20
2023-04-21T22:41:48.039Z,3.07
2023-04-21T22:44:14.880Z,2.77
2023-04-21T22:46:42.032Z,3.27
2023-04-21T22:49:09.263Z,3.50
2023-04-21T22:51:36.384Z,3.53
2023-04-21T22:54:03.450Z,3.07
2023-04-21T22:56:31.676Z,2.87
2023-04-21T22:58:58.632Z,3.17
2023-04-21T23:01:25.581Z,3.37
2023-04-21T23:03:52.375Z,3.23
2023-04-21T23:06:19.711Z,3.23
2023-04-21T23:08:46.722Z,3.77
2023-04-21T23:11:13.894Z,3.00
2023-04-21T23:13:40.640Z,3.50
2023-04-21T23:16:07.458Z,2.90
2023-04-21T23:18:34.815Z,3.10
2023-04-21T23:21:01.777Z,3.17
2023-04-21T23:23:28.665Z,3.00
2023-04-21T23:25:55.710Z,3.00
2023-04-21T23:28:23.868Z,3.03
2023-04-21T23:30:51.281Z,3.40
2023-04-21T23:33:18.490Z,3.20
2023-04-21T23:35:45.508Z,3.70
2023-04-21T23:38:12.426Z,3.07
2023-04-21T23:40:39.120Z,3.23
2023-04-21T23:43:06.113Z,3.57
2023-04-21T23:45:33.726Z,3.20
2023-04-21T23:48:00.551Z,3.33
2023-04-21T23:50:27.543Z,3.00
2023-04-21T23:52:54.413Z,3.33
2023-04-21T23:55:21.397Z,3.20
2023-04-21T23:57:48.616Z,3.40
